sensor_id;sensor_type;location;lat;lon;timestamp;pressure;altitude;pressure_sealevel;temperature;humidity
63088;BME280;49173;43.164;27.786;2023-03-26T00:01:07;99602.78;;;10.56;92.33
63088;BME280;49173;43.164;27.786;2023-03-26T00:03:34;99627.44;;;10.48;91.78
63088;BME280;49173;43.164;27.786;2023-03-26T00:06:12;99616.81;;;10.47;92.06
63088;BME280;49173;43.164;27.786;2023-03-26T00:08:41;99629.94;;;10.51;91.51
63088;BME280;49173;43.164;27.786;2023-03-26T00:11:09;99618.88;;;10.56;91.28
63088;BME280;49173;43.164;27.786;2023-03-26T00:13:35;99622.34;;;10.58;90.86
63088;BME280;49173;43.164;27.786;2023-03-26T00:16:01;99633.09;;;10.58;90.95
63088;BME280;49173;43.164;27.786;2023-03-26T00:18:28;99637.47;;;10.59;90.64
63088;BME280;49173;43.164;27.786;2023-03-26T00:21:02;99640.06;;;10.60;90.65
63088;BME280;49173;43.164;27.786;2023-03-26T00:23:29;99642.06;;;10.57;90.40
63088;BME280;49173;43.164;27.786;2023-03-26T00:25:55;99646.56;;;10.56;90.13
63088;BME280;49173;43.164;27.786;2023-03-26T00:28:22;99641.22;;;10.56;89.93
63088;BME280;49173;43.164;27.786;2023-03-26T00:30:49;99643.16;;;10.54;89.91
63088;BME280;49173;43.164;27.786;2023-03-26T00:33:21;99651.19;;;10.54;90.03
63088;BME280;49173;43.164;27.786;2023-03-26T00:35:51;99654.09;;;10.51;90.19
63088;BME280;49173;43.164;27.786;2023-03-26T00:38:20;99656.78;;;10.51;90.38
63088;BME280;49173;43.164;27.786;2023-03-26T00:40:47;99652.66;;;10.45;90.52
63088;BME280;49173;43.164;27.786;2023-03-26T00:43:16;99650.50;;;10.38;91.01
63088;BME280;49173;43.164;27.786;2023-03-26T00:45:47;99653.94;;;10.40;91.23
63088;BME280;49173;43.164;27.786;2023-03-26T00:48:14;99644.91;;;10.41;91.22
63088;BME280;49173;43.164;27.786;2023-03-26T00:50:41;99654.88;;;10.39;91.50
63088;BME280;49173;43.164;27.786;2023-03-26T00:53:08;99649.53;;;10.39;91.89
63088;BME280;49173;43.164;27.786;2023-03-26T00:55:37;99653.34;;;10.35;92.17
63088;BME280;49173;43.164;27.786;2023-03-26T00:58:03;99651.34;;;10.38;92.29
63088;BME280;49173;43.164;27.786;2023-03-26T01:00:31;99656.59;;;10.40;92.67
63088;BME280;49173;43.164;27.786;2023-03-26T01:03:03;99646.63;;;10.42;92.85
63088;BME280;49173;43.164;27.786;2023-03-26T01:08:04;99654.38;;;10.47;93.04
63088;BME280;49173;43.164;27.786;2023-03-26T01:10:43;99643.00;;;10.43;93.11
63088;BME280;49173;43.164;27.786;2023-03-26T01:13:21;99648.38;;;10.43;93.02
63088;BME280;49173;43.164;27.786;2023-03-26T01:15:48;99649.13;;;10.45;93.51
63088;BME280;49173;43.164;27.786;2023-03-26T01:18:24;99643.44;;;10.50;93.33
63088;BME280;49173;43.164;27.786;2023-03-26T01:20:53;99642.50;;;10.51;93.51
63088;BME280;49173;43.164;27.786;2023-03-26T01:23:29;99652.28;;;10.52;93.89
63088;BME280;49173;43.164;27.786;2023-03-26T01:29:03;99650.22;;;10.55;93.62
63088;BME280;49173;43.164;27.786;2023-03-26T01:32:21;99657.41;;;10.55;93.78
63088;BME280;49173;43.164;27.786;2023-03-26T01:46:10;99664.00;;;10.63;93.03
63088;BME280;49173;43.164;27.786;2023-03-26T01:48:40;99663.91;;;10.65;92.78
63088;BME280;49173;43.164;27.786;2023-03-26T01:51:09;99658.63;;;10.63;92.81
63088;BME280;49173;43.164;27.786;2023-03-26T01:53:40;99658.53;;;10.65;92.73
63088;BME280;49173;43.164;27.786;2023-03-26T01:58:45;99664.66;;;10.67;92.76
63088;BME280;49173;43.164;27.786;2023-03-26T02:04:35;99662.94;;;10.66;92.90
63088;BME280;49173;43.164;27.786;2023-03-26T02:09:41;99656.50;;;10.68;92.65
63088;BME280;49173;43.164;27.786;2023-03-26T02:12:12;99659.19;;;10.68;93.26
63088;BME280;49173;43.164;27.786;2023-03-26T02:14:40;99658.44;;;10.66;93.21
63088;BME280;49173;43.164;27.786;2023-03-26T02:17:07;99660.03;;;10.69;93.17
63088;BME280;49173;43.164;27.786;2023-03-26T02:19:36;99660.72;;;10.72;93.27
63088;BME280;49173;43.164;27.786;2023-03-26T02:22:08;99656.84;;;10.77;92.78
63088;BME280;49173;43.164;27.786;2023-03-26T02:24:37;99667.47;;;10.78;92.67
63088;BME280;49173;43.164;27.786;2023-03-26T02:27:04;99673.50;;;10.82;91.97
63088;BME280;49173;43.164;27.786;2023-03-26T02:29:35;99659.78;;;10.86;91.35
63088;BME280;49173;43.164;27.786;2023-03-26T02:32:06;99653.56;;;10.86;91.08
63088;BME280;49173;43.164;27.786;2023-03-26T02:34:32;99660.53;;;10.88;90.78
63088;BME280;49173;43.164;27.786;2023-03-26T02:36:58;99659.56;;;10.89;90.45
63088;BME280;49173;43.164;27.786;2023-03-26T02:39:25;99659.69;;;10.88;90.32
63088;BME280;49173;43.164;27.786;2023-03-26T02:41:55;99662.16;;;10.91;90.14
63088;BME280;49173;43.164;27.786;2023-03-26T02:44:21;99680.63;;;10.95;89.73
63088;BME280;49173;43.164;27.786;2023-03-26T02:46:47;99673.56;;;10.94;89.41
63088;BME280;49173;43.164;27.786;2023-03-26T02:49:13;99667.22;;;10.95;89.13
63088;BME280;49173;43.164;27.786;2023-03-26T02:51:38;99673.34;;;10.97;89.17
63088;BME280;49173;43.164;27.786;2023-03-26T02:54:05;99665.16;;;10.99;88.84
63088;BME280;49173;43.164;27.786;2023-03-26T02:56:31;99668.75;;;10.99;88.90
63088;BME280;49173;43.164;27.786;2023-03-26T02:58:57;99671.31;;;11.01;88.95
63088;BME280;49173;43.164;27.786;2023-03-26T03:01:23;99668.41;;;11.04;89.25
63088;BME280;49173;43.164;27.786;2023-03-26T03:03:49;99659.19;;;11.08;88.57
63088;BME280;49173;43.164;27.786;2023-03-26T03:06:16;99664.56;;;11.08;88.35
63088;BME280;49173;43.164;27.786;2023-03-26T03:08:44;99666.38;;;11.08;88.32
63088;BME280;49173;43.164;27.786;2023-03-26T03:11:18;99664.56;;;11.08;88.03
63088;BME280;49173;43.164;27.786;2023-03-26T03:13:49;99672.41;;;11.11;88.05
63088;BME280;49173;43.164;27.786;2023-03-26T03:16:15;99678.31;;;11.16;87.50
63088;BME280;49173;43.164;27.786;2023-03-26T03:18:41;99678.31;;;11.16;87.61
63088;BME280;49173;43.164;27.786;2023-03-26T03:21:07;99680.03;;;11.17;87.69
63088;BME280;49173;43.164;27.786;2023-03-26T03:23:33;99675.41;;;11.19;87.21
63088;BME280;49173;43.164;27.786;2023-03-26T03:25:59;99678.94;;;11.20;87.07
63088;BME280;49173;43.164;27.786;2023-03-26T03:28:27;99678.22;;;11.18;87.45
63088;BME280;49173;43.164;27.786;2023-03-26T03:30:52;99679.94;;;11.19;86.98
63088;BME280;49173;43.164;27.786;2023-03-26T03:33:19;99672.72;;;11.19;86.71
63088;BME280;49173;43.164;27.786;2023-03-26T03:35:49;99677.25;;;11.19;87.40
63088;BME280;49173;43.164;27.786;2023-03-26T03:38:15;99690.66;;;11.19;87.25
63088;BME280;49173;43.164;27.786;2023-03-26T03:40:42;99692.31;;;11.21;87.01
63088;BME280;49173;43.164;27.786;2023-03-26T03:43:08;99688.75;;;11.21;86.77
63088;BME280;49173;43.164;27.786;2023-03-26T03:45:34;99703.69;;;11.25;87.26
63088;BME280;49173;43.164;27.786;2023-03-26T03:48:00;99693.91;;;11.24;87.42
63088;BME280;49173;43.164;27.786;2023-03-26T03:50:25;99708.94;;;11.26;87.49
63088;BME280;49173;43.164;27.786;2023-03-26T03:52:51;99705.50;;;11.24;86.93
63088;BME280;49173;43.164;27.786;2023-03-26T03:55:17;99708.31;;;11.23;86.98
63088;BME280;49173;43.164;27.786;2023-03-26T03:57:44;99697.47;;;11.24;87.28
63088;BME280;49173;43.164;27.786;2023-03-26T04:00:11;99704.53;;;11.25;86.79
63088;BME280;49173;43.164;27.786;2023-03-26T04:02:39;99704.53;;;11.25;86.75
63088;BME280;49173;43.164;27.786;2023-03-26T04:05:07;99699.50;;;11.21;87.19
63088;BME280;49173;43.164;27.786;2023-03-26T04:07:33;99715.50;;;11.22;86.96
63088;BME280;49173;43.164;27.786;2023-03-26T04:09:59;99719.34;;;11.18;87.45
63088;BME280;49173;43.164;27.786;2023-03-26T04:12:28;99719.06;;;11.23;87.94
63088;BME280;49173;43.164;27.786;2023-03-26T04:14:55;99713.69;;;11.23;87.76
63088;BME280;49173;43.164;27.786;2023-03-26T04:17:21;99702.94;;;11.23;87.88
63088;BME280;49173;43.164;27.786;2023-03-26T04:19:48;99698.19;;;11.26;87.90
63088;BME280;49173;43.164;27.786;2023-03-26T04:22:15;99707.44;;;11.22;88.71
63088;BME280;49173;43.164;27.786;2023-03-26T04:24:43;99694.75;;;11.24;88.91
63088;BME280;49173;43.164;27.786;2023-03-26T04:27:12;99708.94;;;11.26;89.40
63088;BME280;49173;43.164;27.786;2023-03-26T04:29:42;99717.88;;;11.27;89.36
63088;BME280;49173;43.164;27.786;2023-03-26T04:32:25;99736.59;;;11.28;89.86
63088;BME280;49173;43.164;27.786;2023-03-26T04:34:55;99742.91;;;11.27;89.79
63088;BME280;49173;43.164;27.786;2023-03-26T04:37:28;99752.03;;;11.25;89.88
63088;BME280;49173;43.164;27.786;2023-03-26T04:40:00;99745.59;;;11.27;89.84
63088;BME280;49173;43.164;27.786;2023-03-26T04:42:27;99745.81;;;11.24;90.16
63088;BME280;49173;43.164;27.786;2023-03-26T04:44:53;99750.94;;;11.27;90.15
63088;BME280;49173;43.164;27.786;2023-03-26T04:47:19;99753.75;;;11.26;90.29
63088;BME280;49173;43.164;27.786;2023-03-26T04:49:46;99748.28;;;11.27;90.27
63088;BME280;49173;43.164;27.786;2023-03-26T04:52:12;99748.81;;;11.33;90.31
63088;BME280;49173;43.164;27.786;2023-03-26T04:54:39;99750.34;;;11.37;90.39
63088;BME280;49173;43.164;27.786;2023-03-26T04:57:34;99752.06;;;11.38;89.98
63088;BME280;49173;43.164;27.786;2023-03-26T05:00:04;99749.50;;;11.36;89.48
63088;BME280;49173;43.164;27.786;2023-03-26T05:02:49;99748.63;;;11.36;89.13
63088;BME280;49173;43.164;27.786;2023-03-26T05:05:16;99756.88;;;11.33;89.93
63088;BME280;49173;43.164;27.786;2023-03-26T05:07:42;99748.81;;;11.33;89.69
63088;BME280;49173;43.164;27.786;2023-03-26T05:10:11;99749.50;;;11.36;89.32
63088;BME280;49173;43.164;27.786;2023-03-26T05:12:39;99747.56;;;11.38;89.08
63088;BME280;49173;43.164;27.786;2023-03-26T05:15:05;99752.94;;;11.38;88.90
63088;BME280;49173;43.164;27.786;2023-03-26T05:17:31;99764.13;;;11.45;89.41
63088;BME280;49173;43.164;27.786;2023-03-26T05:20:00;99763.28;;;11.57;89.36
63088;BME280;49173;43.164;27.786;2023-03-26T05:22:26;99776.84;;;11.68;88.78
63088;BME280;49173;43.164;27.786;2023-03-26T05:24:52;99775.25;;;11.78;88.77
63088;BME280;49173;43.164;27.786;2023-03-26T05:27:17;99776.78;;;11.95;88.52
63088;BME280;49173;43.164;27.786;2023-03-26T05:29:47;99780.56;;;12.05;88.01
63088;BME280;49173;43.164;27.786;2023-03-26T05:32:12;99774.22;;;12.19;87.10
63088;BME280;49173;43.164;27.786;2023-03-26T05:34:39;99778.91;;;12.41;86.50
63088;BME280;49173;43.164;27.786;2023-03-26T05:37:05;99771.47;;;12.81;84.95
63088;BME280;49173;43.164;27.786;2023-03-26T05:39:32;99777.94;;;13.03;83.49
63088;BME280;49173;43.164;27.786;2023-03-26T05:41:58;99773.22;;;13.06;83.06
63088;BME280;49173;43.164;27.786;2023-03-26T05:44:24;99775.03;;;13.06;82.97
63088;BME280;49173;43.164;27.786;2023-03-26T05:46:49;99770.31;;;13.33;82.55
63088;BME280;49173;43.164;27.786;2023-03-26T05:49:15;99771.25;;;13.56;80.36
63088;BME280;49173;43.164;27.786;2023-03-26T05:51:41;99776.75;;;13.55;79.56
63088;BME280;49173;43.164;27.786;2023-03-26T05:54:07;99776.72;;;13.43;79.20
63088;BME280;49173;43.164;27.786;2023-03-26T05:56:32;99775.19;;;13.28;78.77
63088;BME280;49173;43.164;27.786;2023-03-26T05:58:58;99777.03;;;13.15;79.93
63088;BME280;49173;43.164;27.786;2023-03-26T06:01:24;99782.47;;;13.02;81.09
63088;BME280;49173;43.164;27.786;2023-03-26T06:03:50;99780.94;;;12.87;81.31
63088;BME280;49173;43.164;27.786;2023-03-26T06:06:18;99775.69;;;12.73;82.05
63088;BME280;49173;43.164;27.786;2023-03-26T06:08:46;99784.34;;;12.65;83.14
63088;BME280;49173;43.164;27.786;2023-03-26T06:11:18;99775.00;;;12.58;83.34
63088;BME280;49173;43.164;27.786;2023-03-26T06:13:45;99777.25;;;12.51;84.10
63088;BME280;49173;43.164;27.786;2023-03-26T06:16:11;99769.44;;;12.48;83.78
63088;BME280;49173;43.164;27.786;2023-03-26T06:18:38;99789.56;;;12.43;84.35
63088;BME280;49173;43.164;27.786;2023-03-26T06:21:05;99785.47;;;12.37;85.14
63088;BME280;49173;43.164;27.786;2023-03-26T06:23:31;99778.69;;;12.31;85.55
63088;BME280;49173;43.164;27.786;2023-03-26T06:25:57;99787.63;;;12.32;85.20
63088;BME280;49173;43.164;27.786;2023-03-26T06:28:23;99793.00;;;12.32;85.30
63088;BME280;49173;43.164;27.786;2023-03-26T06:30:50;99783.34;;;12.29;85.09
63088;BME280;49173;43.164;27.786;2023-03-26T06:33:16;99792.38;;;12.28;84.86
63088;BME280;49173;43.164;27.786;2023-03-26T06:35:43;99788.84;;;12.28;85.58
63088;BME280;49173;43.164;27.786;2023-03-26T06:38:11;99787.97;;;12.27;85.29
63088;BME280;49173;43.164;27.786;2023-03-26T06:40:37;99794.09;;;12.29;85.26
63088;BME280;49173;43.164;27.786;2023-03-26T06:43:03;99798.38;;;12.32;85.30
63088;BME280;49173;43.164;27.786;2023-03-26T06:45:31;99806.38;;;12.33;85.70
63088;BME280;49173;43.164;27.786;2023-03-26T06:47:57;99804.97;;;12.41;87.04
63088;BME280;49173;43.164;27.786;2023-03-26T06:50:22;99803.94;;;12.67;87.13
63088;BME280;49173;43.164;27.786;2023-03-26T06:52:48;99799.66;;;12.88;86.33
63088;BME280;49173;43.164;27.786;2023-03-26T06:55:15;99799.00;;;12.98;84.99
63088;BME280;49173;43.164;27.786;2023-03-26T06:57:41;99803.19;;;13.02;83.20
63088;BME280;49173;43.164;27.786;2023-03-26T07:00:10;99806.84;;;13.01;82.54
63088;BME280;49173;43.164;27.786;2023-03-26T07:02:36;99820.19;;;13.02;82.92
63088;BME280;49173;43.164;27.786;2023-03-26T07:05:02;99819.00;;;13.06;82.79
63088;BME280;49173;43.164;27.786;2023-03-26T07:07:28;99819.88;;;13.07;82.73
63088;BME280;49173;43.164;27.786;2023-03-26T07:09:53;99818.16;;;13.06;81.90
63088;BME280;49173;43.164;27.786;2023-03-26T07:12:19;99820.59;;;13.09;82.74
63088;BME280;49173;43.164;27.786;2023-03-26T07:14:45;99815.00;;;13.12;82.64
63088;BME280;49173;43.164;27.786;2023-03-26T07:17:11;99811.09;;;13.16;82.93
63088;BME280;49173;43.164;27.786;2023-03-26T07:19:36;99809.13;;;13.31;82.71
63088;BME280;49173;43.164;27.786;2023-03-26T07:22:02;99809.31;;;13.40;81.46
63088;BME280;49173;43.164;27.786;2023-03-26T07:24:28;99805.66;;;13.53;81.40
63088;BME280;49173;43.164;27.786;2023-03-26T07:29:52;99795.13;;;13.50;78.54
63088;BME280;49173;43.164;27.786;2023-03-26T07:32:37;99797.16;;;13.46;78.47
63088;BME280;49173;43.164;27.786;2023-03-26T07:35:12;99788.94;;;13.36;78.01
63088;BME280;49173;43.164;27.786;2023-03-26T07:45:42;99805.94;;;13.61;77.45
63088;BME280;49173;43.164;27.786;2023-03-26T07:48:16;99790.91;;;13.69;77.14
63088;BME280;49173;43.164;27.786;2023-03-26T07:50:43;99787.22;;;13.70;75.72
63088;BME280;49173;43.164;27.786;2023-03-26T07:53:09;99790.72;;;13.60;75.84
63088;BME280;49173;43.164;27.786;2023-03-26T07:58:51;99785.72;;;13.55;75.49
63088;BME280;49173;43.164;27.786;2023-03-26T08:06:47;99788.59;;;13.76;74.56
63088;BME280;49173;43.164;27.786;2023-03-26T08:17:35;99788.66;;;14.10;72.69
63088;BME280;49173;43.164;27.786;2023-03-26T08:25:56;99791.59;;;14.29;71.36
63088;BME280;49173;43.164;27.786;2023-03-26T08:30:58;99784.25;;;14.31;70.73
63088;BME280;49173;43.164;27.786;2023-03-26T08:33:27;99774.91;;;14.35;70.46
63088;BME280;49173;43.164;27.786;2023-03-26T08:35:53;99780.09;;;14.38;71.36
63088;BME280;49173;43.164;27.786;2023-03-26T08:38:19;99773.84;;;14.49;70.16
63088;BME280;49173;43.164;27.786;2023-03-26T09:22:37;99789.88;;;14.73;66.37
63088;BME280;49173;43.164;27.786;2023-03-26T09:32:16;99794.06;;;14.66;68.42
63088;BME280;49173;43.164;27.786;2023-03-26T09:37:00;99783.63;;;14.95;67.49
63088;BME280;49173;43.164;27.786;2023-03-26T09:39:46;99797.59;;;15.00;65.17
63088;BME280;49173;43.164;27.786;2023-03-26T09:42:42;99797.69;;;15.09;65.27
63088;BME280;49173;43.164;27.786;2023-03-26T09:45:33;99802.06;;;15.22;64.30
63088;BME280;49173;43.164;27.786;2023-03-26T09:53:34;99796.47;;;15.46;64.67
63088;BME280;49173;43.164;27.786;2023-03-26T10:07:03;99806.63;;;15.53;63.60
63088;BME280;49173;43.164;27.786;2023-03-26T10:09:44;99811.28;;;15.62;63.06
63088;BME280;49173;43.164;27.786;2023-03-26T10:23:30;99816.75;;;15.40;61.67
63088;BME280;49173;43.164;27.786;2023-03-26T10:31:38;99820.75;;;15.25;60.04
63088;BME280;49173;43.164;27.786;2023-03-26T10:34:22;99804.66;;;15.23;59.34
63088;BME280;49173;43.164;27.786;2023-03-26T10:39:56;99807.53;;;15.43;61.28
63088;BME280;49173;43.164;27.786;2023-03-26T10:42:44;99813.16;;;15.51;60.53
63088;BME280;49173;43.164;27.786;2023-03-26T10:45:27;99803.94;;;15.64;62.36
63088;BME280;49173;43.164;27.786;2023-03-26T10:48:01;99802.78;;;15.67;60.28
63088;BME280;49173;43.164;27.786;2023-03-26T10:53:29;99802.13;;;15.75;60.73
63088;BME280;49173;43.164;27.786;2023-03-26T10:56:05;99813.16;;;15.83;59.68
63088;BME280;49173;43.164;27.786;2023-03-26T10:58:34;99821.56;;;15.80;57.68
63088;BME280;49173;43.164;27.786;2023-03-26T11:01:03;99831.97;;;15.84;57.22
63088;BME280;49173;43.164;27.786;2023-03-26T11:06:39;99848.06;;;16.07;57.96
63088;BME280;49173;43.164;27.786;2023-03-26T11:11:53;99834.28;;;15.89;56.91
63088;BME280;49173;43.164;27.786;2023-03-26T11:19:57;99843.13;;;16.12;57.91
63088;BME280;49173;43.164;27.786;2023-03-26T11:33:12;99823.59;;;15.67;57.64
63088;BME280;49173;43.164;27.786;2023-03-26T11:35:44;99825.63;;;15.74;59.95
63088;BME280;49173;43.164;27.786;2023-03-26T11:40:45;99814.41;;;16.00;58.49
63088;BME280;49173;43.164;27.786;2023-03-26T11:43:21;99805.09;;;16.13;56.59
63088;BME280;49173;43.164;27.786;2023-03-26T11:45:49;99807.91;;;16.33;57.88
63088;BME280;49173;43.164;27.786;2023-03-26T11:49:04;99800.25;;;16.38;55.78
63088;BME280;49173;43.164;27.786;2023-03-26T11:51:34;99802.78;;;16.60;55.94
63088;BME280;49173;43.164;27.786;2023-03-26T11:54:02;99793.72;;;16.71;54.09
63088;BME280;49173;43.164;27.786;2023-03-26T11:56:32;99791.06;;;16.90;56.17
63088;BME280;49173;43.164;27.786;2023-03-26T11:59:11;99799.53;;;17.07;56.73
63088;BME280;49173;43.164;27.786;2023-03-26T12:01:50;99790.69;;;17.14;51.84
63088;BME280;49173;43.164;27.786;2023-03-26T12:04:41;99784.13;;;17.26;54.83
63088;BME280;49173;43.164;27.786;2023-03-26T12:07:11;99788.13;;;17.32;52.88
63088;BME280;49173;43.164;27.786;2023-03-26T12:09:54;99792.28;;;17.46;53.00
63088;BME280;49173;43.164;27.786;2023-03-26T12:12:24;99795.56;;;17.49;52.25
63088;BME280;49173;43.164;27.786;2023-03-26T12:14:51;99793.88;;;17.48;52.54
63088;BME280;49173;43.164;27.786;2023-03-26T12:17:31;99788.44;;;17.58;52.89
63088;BME280;49173;43.164;27.786;2023-03-26T12:19:58;99784.16;;;17.65;52.92
63088;BME280;49173;43.164;27.786;2023-03-26T12:22:32;99783.31;;;17.74;52.22
63088;BME280;49173;43.164;27.786;2023-03-26T12:25:15;99794.91;;;17.76;51.15
63088;BME280;49173;43.164;27.786;2023-03-26T12:28:27;99794.47;;;17.71;52.57
63088;BME280;49173;43.164;27.786;2023-03-26T12:30:35;99791.28;;;17.76;51.59
63088;BME280;49173;43.164;27.786;2023-03-26T12:33:12;99792.72;;;17.70;50.04
63088;BME280;49173;43.164;27.786;2023-03-26T12:35:41;99795.56;;;17.69;49.78
63088;BME280;49173;43.164;27.786;2023-03-26T12:40:46;99794.47;;;17.71;51.19
63088;BME280;49173;43.164;27.786;2023-03-26T12:46:28;99774.16;;;17.85;50.27
63088;BME280;49173;43.164;27.786;2023-03-26T12:49:01;99772.72;;;17.91;50.33
63088;BME280;49173;43.164;27.786;2023-03-26T12:51:47;99758.84;;;17.94;49.09
63088;BME280;49173;43.164;27.786;2023-03-26T12:54:30;99753.25;;;18.05;49.41
63088;BME280;49173;43.164;27.786;2023-03-26T12:59:46;99751.19;;;18.17;49.44
63088;BME280;49173;43.164;27.786;2023-03-26T13:11:12;99739.88;;;18.58;46.02
63088;BME280;49173;43.164;27.786;2023-03-26T13:14:04;99744.19;;;18.61;45.15
63088;BME280;49173;43.164;27.786;2023-03-26T13:16:38;99732.13;;;18.63;46.42
63088;BME280;49173;43.164;27.786;2023-03-26T13:22:00;99724.91;;;18.82;45.62
63088;BME280;49173;43.164;27.786;2023-03-26T13:24:54;99728.09;;;18.95;45.30
63088;BME280;49173;43.164;27.786;2023-03-26T13:43:27;99733.66;;;19.39;44.83
63088;BME280;49173;43.164;27.786;2023-03-26T13:48:57;99726.75;;;19.62;46.43
63088;BME280;49173;43.164;27.786;2023-03-26T13:51:32;99720.50;;;19.70;45.77
63088;BME280;49173;43.164;27.786;2023-03-26T13:56:35;99723.91;;;19.72;45.46
63088;BME280;49173;43.164;27.786;2023-03-26T13:59:21;99719.09;;;19.66;45.12
63088;BME280;49173;43.164;27.786;2023-03-26T14:02:04;99732.25;;;19.53;44.74
63088;BME280;49173;43.164;27.786;2023-03-26T14:04:43;99718.47;;;19.36;44.67
63088;BME280;49173;43.164;27.786;2023-03-26T14:07:18;99721.19;;;19.36;44.49
63088;BME280;49173;43.164;27.786;2023-03-26T14:15:05;99723.16;;;19.26;44.98
63088;BME280;49173;43.164;27.786;2023-03-26T14:18:21;99714.75;;;19.37;42.73
63088;BME280;49173;43.164;27.786;2023-03-26T14:37:55;99715.81;;;19.44;42.85
63088;BME280;49173;43.164;27.786;2023-03-26T14:49:01;99713.34;;;18.98;41.39
63088;BME280;49173;43.164;27.786;2023-03-26T14:54:41;99707.91;;;18.98;41.34
63088;BME280;49173;43.164;27.786;2023-03-26T14:57:30;99708.63;;;19.00;41.13
63088;BME280;49173;43.164;27.786;2023-03-26T15:06:36;99720.81;;;19.13;40.40
63088;BME280;49173;43.164;27.786;2023-03-26T15:12:43;99724.72;;;19.11;39.89
63088;BME280;49173;43.164;27.786;2023-03-26T15:15:56;99724.00;;;19.09;40.15
63088;BME280;49173;43.164;27.786;2023-03-26T15:41:01;99742.44;;;18.32;40.67
63088;BME280;49173;43.164;27.786;2023-03-26T15:54:29;99759.88;;;17.83;42.74
63088;BME280;49173;43.164;27.786;2023-03-26T15:57:12;99761.59;;;17.74;43.23
63088;BME280;49173;43.164;27.786;2023-03-26T16:05:52;99762.16;;;17.20;49.05
63088;BME280;49173;43.164;27.786;2023-03-26T16:10:54;99769.19;;;16.72;52.13
63088;BME280;49173;43.164;27.786;2023-03-26T16:18:33;99782.19;;;16.48;53.28
63088;BME280;49173;43.164;27.786;2023-03-26T16:23:53;99783.84;;;16.09;54.44
63088;BME280;49173;43.164;27.786;2023-03-26T16:34:57;99792.84;;;15.56;57.07
63088;BME280;49173;43.164;27.786;2023-03-26T16:48:58;99826.94;;;15.04;59.57
63088;BME280;49173;43.164;27.786;2023-03-26T16:57:35;99833.56;;;14.22;63.27
63088;BME280;49173;43.164;27.786;2023-03-26T17:00:29;99845.59;;;14.18;64.09
63088;BME280;49173;43.164;27.786;2023-03-26T17:03:30;99853.00;;;13.92;64.89
63088;BME280;49173;43.164;27.786;2023-03-26T17:14:21;99864.91;;;13.65;67.30
63088;BME280;49173;43.164;27.786;2023-03-26T17:17:11;99871.97;;;13.55;68.05
63088;BME280;49173;43.164;27.786;2023-03-26T17:20:36;99876.91;;;13.61;67.79
63088;BME280;49173;43.164;27.786;2023-03-26T17:25:19;99882.47;;;13.71;67.58
63088;BME280;49173;43.164;27.786;2023-03-26T17:27:55;99893.31;;;13.82;67.16
63088;BME280;49173;43.164;27.786;2023-03-26T17:33:34;99895.03;;;13.83;66.52
63088;BME280;49173;43.164;27.786;2023-03-26T17:41:10;99916.94;;;13.79;65.87
63088;BME280;49173;43.164;27.786;2023-03-26T17:43:46;99919.97;;;13.74;66.16
63088;BME280;49173;43.164;27.786;2023-03-26T17:46:20;99926.06;;;13.65;66.20
63088;BME280;49173;43.164;27.786;2023-03-26T17:48:53;99933.31;;;13.64;66.56
63088;BME280;49173;43.164;27.786;2023-03-26T17:54:33;99940.69;;;13.50;66.71
63088;BME280;49173;43.164;27.786;2023-03-26T17:57:18;99951.06;;;13.43;67.56
63088;BME280;49173;43.164;27.786;2023-03-26T17:59:45;99949.69;;;13.37;67.75
63088;BME280;49173;43.164;27.786;2023-03-26T18:02:18;99951.97;;;13.31;68.38
63088;BME280;49173;43.164;27.786;2023-03-26T18:04:47;99953.66;;;13.32;68.20
63088;BME280;49173;43.164;27.786;2023-03-26T18:10:52;99947.91;;;13.25;68.70
63088;BME280;49173;43.164;27.786;2023-03-26T18:16:16;99949.63;;;13.26;67.76
63088;BME280;49173;43.164;27.786;2023-03-26T18:18:58;99949.81;;;13.23;67.70
63088;BME280;49173;43.164;27.786;2023-03-26T18:21:46;99957.88;;;13.10;67.89
63088;BME280;49173;43.164;27.786;2023-03-26T18:26:55;99966.31;;;13.06;68.00
63088;BME280;49173;43.164;27.786;2023-03-26T18:29:28;99966.53;;;13.03;68.19
63088;BME280;49173;43.164;27.786;2023-03-26T18:31:59;99975.03;;;12.97;68.50
63088;BME280;49173;43.164;27.786;2023-03-26T18:34:33;99969.56;;;12.85;68.79
63088;BME280;49173;43.164;27.786;2023-03-26T18:39:36;99962.66;;;12.81;69.09
63088;BME280;49173;43.164;27.786;2023-03-26T18:42:04;99962.66;;;12.81;69.17
63088;BME280;49173;43.164;27.786;2023-03-26T18:44:31;99958.25;;;12.80;68.75
63088;BME280;49173;43.164;27.786;2023-03-26T18:47:04;99962.91;;;12.78;68.89
63088;BME280;49173;43.164;27.786;2023-03-26T18:49:32;99958.38;;;12.66;68.75
63088;BME280;49173;43.164;27.786;2023-03-26T18:52:00;99967.94;;;12.57;69.31
63088;BME280;49173;43.164;27.786;2023-03-26T18:54:33;99961.28;;;12.50;68.87
63088;BME280;49173;43.164;27.786;2023-03-26T18:57:10;99961.56;;;12.46;69.24
63088;BME280;49173;43.164;27.786;2023-03-26T18:59:43;99958.25;;;12.42;69.38
63088;BME280;49173;43.164;27.786;2023-03-26T19:02:12;99960.41;;;12.37;69.84
63088;BME280;49173;43.164;27.786;2023-03-26T19:04:40;99958.97;;;12.31;69.69
63088;BME280;49173;43.164;27.786;2023-03-26T19:07:11;99950.56;;;12.23;70.05
63088;BME280;49173;43.164;27.786;2023-03-26T19:09:39;99946.59;;;12.16;70.68
63088;BME280;49173;43.164;27.786;2023-03-26T19:12:14;99947.75;;;12.12;71.11
63088;BME280;49173;43.164;27.786;2023-03-26T19:17:55;99940.00;;;12.07;71.07
63088;BME280;49173;43.164;27.786;2023-03-26T19:20:29;99942.44;;;11.98;71.37
63088;BME280;49173;43.164;27.786;2023-03-26T19:22:57;99951.59;;;11.95;71.72
63088;BME280;49173;43.164;27.786;2023-03-26T19:25:43;99948.44;;;11.89;71.80
63088;BME280;49173;43.164;27.786;2023-03-26T19:28:36;99944.78;;;11.90;72.37